createdAt,value
2023-03-23T15:59:03.411Z,15.98
2023-03-23T16:01:36.444Z,16.02
2023-03-23T16:04:18.832Z,15.99
2023-03-23T16:06:51.668Z,16.00
2023-03-23T16:09:22.335Z,15.86
2023-03-23T16:11:52.992Z,15.90
2023-03-23T16:14:23.682Z,15.80
2023-03-23T16:16:54.499Z,15.87
2023-03-23T16:19:25.017Z,15.81
2023-03-23T16:21:55.636Z,15.82
2023-03-23T16:24:26.522Z,15.85
2023-03-23T16:26:57.088Z,15.76
2023-03-23T16:29:54.265Z,15.68
2023-03-23T16:32:02.592Z,15.84
2023-03-23T16:34:35.740Z,15.80
2023-03-23T16:37:09.672Z,15.50
2023-03-23T16:39:43.249Z,14.92
2023-03-23T16:42:17.726Z,14.55
2023-03-23T16:44:49.884Z,14.29
2023-03-23T16:47:26.604Z,14.22
2023-03-23T16:49:59.851Z,14.01
2023-03-23T16:52:30.768Z,13.82
2023-03-23T16:55:01.984Z,13.79
2023-03-23T16:57:36.999Z,13.80
2023-03-23T17:00:11.943Z,13.78
2023-03-23T17:02:44.159Z,13.72
2023-03-23T17:05:17.502Z,13.63
2023-03-23T17:07:56.021Z,13.41
2023-03-23T17:10:22.540Z,13.32
2023-03-23T17:12:53.322Z,13.20
2023-03-23T17:15:31.028Z,13.18
2023-03-23T17:18:01.963Z,13.06
2023-03-23T17:20:34.333Z,13.00
2023-03-23T17:23:06.048Z,12.89
2023-03-23T17:25:36.607Z,12.90
2023-03-23T17:28:07.524Z,12.79
2023-03-23T17:30:43.003Z,12.80
2023-03-23T17:33:16.817Z,12.91
2023-03-23T17:35:49.768Z,12.92
2023-03-23T17:38:23.481Z,12.82
2023-03-23T17:41:04.189Z,12.58
2023-03-23T17:43:36.348Z,12.40
2023-03-23T17:46:12.782Z,12.13
2023-03-23T17:48:45.323Z,11.92
2023-03-23T17:51:15.844Z,11.96
2023-03-23T17:53:49.998Z,11.79
2023-03-23T17:56:20.450Z,11.89
2023-03-23T17:58:56.114Z,11.82
2023-03-23T18:01:29.659Z,11.90
2023-03-23T18:04:00.503Z,12.00
2023-03-23T18:06:33.018Z,12.00
2023-03-23T18:09:05.171Z,12.08
2023-03-23T18:11:36.017Z,12.12
2023-03-23T18:14:06.638Z,12.23
2023-03-23T18:16:38.693Z,12.31
2023-03-23T18:19:10.161Z,12.26
2023-03-23T18:21:42.947Z,12.24
2023-03-23T18:24:15.659Z,12.19
2023-03-23T18:26:48.773Z,12.24
2023-03-23T18:29:19.702Z,12.44
2023-03-23T18:31:50.425Z,12.29
2023-03-23T18:34:21.098Z,12.38
2023-03-23T18:36:54.240Z,12.22
2023-03-23T18:39:24.396Z,12.30
2023-03-23T18:41:54.861Z,12.29
2023-03-23T18:44:27.010Z,12.36
2023-03-23T18:46:57.929Z,12.18
2023-03-23T18:49:29.217Z,12.24
2023-03-23T18:52:00.417Z,12.23
2023-03-23T18:54:33.630Z,12.18
2023-03-23T18:57:04.438Z,12.10
2023-03-23T18:59:35.816Z,12.14
2023-03-23T19:02:08.469Z,12.12
2023-03-23T19:04:39.444Z,12.19
2023-03-23T19:07:13.979Z,12.16
2023-03-23T19:09:46.644Z,12.16
2023-03-23T19:12:17.222Z,12.16
2023-03-23T19:14:51.644Z,12.20
2023-03-23T19:17:25.158Z,12.20
2023-03-23T19:19:57.986Z,12.24
2023-03-23T19:22:28.501Z,12.21
2023-03-23T19:24:59.044Z,12.26
2023-03-23T19:27:30.323Z,12.44
2023-03-23T19:30:01.568Z,12.28
2023-03-23T19:32:34.071Z,12.24
2023-03-23T19:35:05.478Z,12.20
2023-03-23T19:37:37.533Z,12.27
2023-03-23T19:40:28.657Z,12.38
2023-03-23T19:42:42.253Z,12.29
2023-03-23T19:45:13.882Z,12.20
2023-03-23T19:47:45.338Z,12.11
2023-03-23T19:50:17.710Z,12.02
2023-03-23T19:52:49.533Z,12.18
2023-03-23T19:55:20.797Z,12.29
2023-03-23T19:57:51.284Z,12.26
2023-03-23T20:00:24.467Z,12.22
2023-03-23T20:02:55.221Z,12.25
2023-03-23T20:05:25.728Z,12.20
2023-03-23T20:07:57.355Z,12.12
2023-03-23T20:10:29.992Z,12.26
2023-03-23T20:13:02.266Z,12.34
2023-03-23T20:15:34.828Z,12.56
2023-03-23T20:18:09.783Z,12.44
2023-03-23T20:20:41.684Z,12.36
2023-03-23T20:23:12.632Z,12.21
2023-03-23T20:25:43.843Z,12.02
2023-03-23T20:28:14.474Z,12.00
2023-03-23T20:30:44.947Z,11.91
2023-03-23T20:33:17.012Z,11.84
2023-03-23T20:35:47.674Z,11.77
2023-03-23T20:38:19.347Z,11.70
2023-03-23T20:40:50.145Z,11.70
2023-03-23T20:43:21.297Z,11.71
2023-03-23T20:45:53.420Z,11.82
2023-03-23T20:48:28.503Z,11.76
2023-03-23T20:51:00.769Z,11.96
2023-03-23T20:53:33.627Z,12.00
2023-03-23T20:56:06.530Z,11.96
2023-03-23T20:58:38.150Z,11.84
2023-03-23T21:01:12.017Z,11.77
2023-03-23T21:03:44.133Z,11.85
2023-03-23T21:06:16.645Z,11.89
2023-03-23T21:08:47.444Z,11.99
2023-03-23T21:11:23.625Z,11.93
2023-03-23T21:13:55.284Z,11.88
2023-03-23T21:16:26.018Z,11.79
2023-03-23T21:18:58.124Z,11.88
2023-03-23T21:21:29.413Z,11.84
2023-03-23T21:23:59.992Z,11.83
2023-03-23T21:26:31.255Z,11.74
2023-03-23T21:29:04.309Z,11.55
2023-03-23T21:31:35.419Z,11.50
2023-03-23T21:34:06.105Z,11.29
2023-03-23T21:36:37.861Z,11.18
2023-03-23T21:39:10.326Z,11.10
2023-03-23T21:41:41.931Z,11.06
2023-03-23T21:44:15.301Z,11.04
2023-03-23T21:46:46.270Z,11.02
2023-03-23T21:49:16.755Z,11.02
2023-03-23T21:51:49.175Z,10.94
2023-03-23T21:54:23.013Z,10.91
2023-03-23T21:56:53.656Z,10.89
2023-03-23T21:59:29.566Z,10.96
2023-03-23T22:02:02.148Z,10.86
2023-03-23T22:04:32.751Z,10.70
2023-03-23T22:07:03.530Z,10.79
2023-03-23T22:09:35.201Z,10.88
2023-03-23T22:12:07.015Z,10.86
2023-03-23T22:14:37.736Z,10.80
2023-03-23T22:17:08.932Z,10.89
2023-03-23T22:19:40.376Z,10.74
2023-03-23T22:22:13.943Z,10.74
2023-03-23T22:24:44.499Z,10.80
2023-03-23T22:27:18.333Z,10.74
2023-03-23T22:29:53.323Z,10.63
2023-03-23T22:32:24.530Z,10.58
2023-03-23T22:34:54.948Z,10.52
2023-03-23T22:37:25.982Z,10.48
2023-03-23T22:39:56.438Z,10.46
2023-03-23T22:42:27.047Z,10.52
2023-03-23T22:44:57.583Z,10.48
2023-03-23T22:47:28.077Z,10.50
2023-03-23T22:49:58.639Z,10.43
2023-03-23T22:52:29.335Z,10.44
2023-03-23T22:54:59.784Z,10.35
2023-03-23T22:57:30.896Z,10.45
2023-03-23T23:00:01.789Z,10.33
2023-03-23T23:02:36.027Z,10.34
2023-03-23T23:05:07.256Z,10.42
2023-03-23T23:07:38.887Z,10.39
2023-03-23T23:10:10.514Z,10.40
2023-03-23T23:12:45.818Z,10.42
2023-03-23T23:15:16.849Z,10.50
2023-03-23T23:17:47.878Z,10.46
2023-03-23T23:20:18.987Z,10.48
2023-03-23T23:22:49.620Z,10.50
2023-03-23T23:25:22.342Z,10.65
2023-03-23T23:27:53.056Z,10.77
2023-03-23T23:30:27.598Z,10.68
2023-03-23T23:32:58.910Z,10.68
2023-03-23T23:35:30.087Z,10.64
2023-03-23T23:38:01.102Z,10.60
2023-03-23T23:40:36.311Z,10.62
2023-03-23T23:43:06.921Z,10.62
2023-03-23T23:45:39.302Z,10.57
2023-03-23T23:48:10.205Z,10.60
2023-03-23T23:50:40.913Z,10.60
2023-03-23T23:53:13.124Z,10.63
2023-03-23T23:55:44.967Z,10.64
2023-03-23T23:58:15.911Z,10.67
